createdAt,value
2024-03-25T00:00:09.048Z,1999.00
2024-03-25T00:01:09.033Z,1999.00
2024-03-25T00:02:09.023Z,1999.00
2024-03-25T00:03:09.000Z,1999.00
2024-03-25T00:04:09.002Z,1999.00
2024-03-25T00:05:08.973Z,1999.00
2024-03-25T00:06:08.956Z,1999.00
2024-03-25T00:07:08.927Z,1999.00
2024-03-25T00:08:08.926Z,1999.00
2024-03-25T00:09:08.918Z,1999.00
2024-03-25T00:10:08.914Z,1999.00
2024-03-25T00:11:08.904Z,1999.00
2024-03-25T00:12:08.873Z,1999.00
2024-03-25T00:13:08.855Z,1999.00
2024-03-25T00:14:08.867Z,1999.00
2024-03-25T00:15:08.847Z,1999.00
2024-03-25T00:16:08.834Z,1999.00
2024-03-25T00:17:08.818Z,1999.00
2024-03-25T00:18:08.799Z,1999.00
2024-03-25T00:19:08.793Z,1999.00
2024-03-25T00:20:08.776Z,1999.00
2024-03-25T00:21:08.773Z,1999.00
2024-03-25T00:22:08.774Z,1999.00
2024-03-25T00:23:08.757Z,1999.00
2024-03-25T00:24:08.795Z,1999.00
2024-03-25T00:25:08.820Z,1999.00
2024-03-25T00:26:08.831Z,1999.00
2024-03-25T00:27:08.856Z,1999.00
2024-03-25T00:28:08.884Z,1999.00
2024-03-25T00:29:08.904Z,1999.00
2024-03-25T00:30:08.927Z,1999.00
2024-03-25T00:31:08.944Z,1999.00
2024-03-25T00:32:08.968Z,1999.00
2024-03-25T00:33:09.006Z,1999.00
2024-03-25T00:34:09.037Z,1999.00
2024-03-25T00:35:09.043Z,1999.00
2024-03-25T00:36:09.067Z,1999.00
2024-03-25T00:37:09.087Z,1999.00
2024-03-25T00:38:09.111Z,1999.00
2024-03-25T00:39:09.148Z,1999.00
2024-03-25T00:40:09.162Z,1999.00
2024-03-25T00:41:09.175Z,1999.00
2024-03-25T00:42:09.210Z,1999.00
2024-03-25T00:43:09.227Z,1999.00
2024-03-25T00:44:09.262Z,1999.00
2024-03-25T00:45:09.290Z,1999.00
2024-03-25T00:46:09.307Z,1999.00
2024-03-25T00:47:09.313Z,1999.00
2024-03-25T00:48:09.339Z,1999.00
2024-03-25T00:49:09.370Z,1999.00
2024-03-25T00:50:09.396Z,1999.00
2024-03-25T00:51:09.422Z,1999.00
2024-03-25T00:52:09.445Z,1999.00
2024-03-25T00:53:09.458Z,1999.00
2024-03-25T00:54:09.500Z,1999.00
2024-03-25T00:55:09.516Z,1999.00
2024-03-25T00:56:09.494Z,1999.00
2024-03-25T00:57:09.479Z,1999.00
2024-03-25T00:58:09.464Z,1999.00
2024-03-25T00:59:09.454Z,1999.00
2024-03-25T01:00:09.455Z,1999.00
2024-03-25T01:01:09.413Z,1999.00
2024-03-25T01:02:09.410Z,1999.00
2024-03-25T01:03:09.379Z,1999.00
2024-03-25T01:04:09.373Z,1999.00
2024-03-25T01:05:09.357Z,1999.00
2024-03-25T01:06:09.351Z,1999.00
2024-03-25T01:07:09.316Z,1999.00
2024-03-25T01:08:09.299Z,1999.00
2024-03-25T01:09:09.293Z,1999.00
2024-03-25T01:10:09.267Z,1999.00
2024-03-25T01:11:09.269Z,1999.00
2024-03-25T01:12:09.272Z,1999.00
2024-03-25T01:13:09.243Z,1999.00
2024-03-25T01:14:09.231Z,1999.00
2024-03-25T01:15:09.224Z,1999.00
2024-03-25T01:16:09.196Z,1999.00
2024-03-25T01:17:09.186Z,1999.00
2024-03-25T01:18:09.184Z,1999.00
2024-03-25T01:19:09.157Z,1999.00
2024-03-25T01:20:09.145Z,1999.00
2024-03-25T01:21:09.124Z,1999.00
2024-03-25T01:22:09.104Z,1999.00
2024-03-25T01:23:09.094Z,1999.00
2024-03-25T01:24:09.084Z,1999.00
2024-03-25T01:25:09.055Z,1999.00
2024-03-25T01:26:09.038Z,1999.00
2024-03-25T01:27:09.018Z,1999.00
2024-03-25T01:28:09.007Z,1999.00
2024-03-25T01:29:09.003Z,1999.00
2024-03-25T01:30:08.965Z,1999.00
2024-03-25T01:31:08.975Z,1999.00
2024-03-25T01:32:08.952Z,1999.00
2024-03-25T01:33:08.962Z,1999.00
2024-03-25T01:34:08.990Z,1999.00
2024-03-25T01:35:09.011Z,1999.00
2024-03-25T01:36:09.037Z,1999.00
2024-03-25T01:37:09.062Z,1999.00
2024-03-25T01:38:09.091Z,1999.00
2024-03-25T01:39:09.138Z,1999.00
2024-03-25T01:40:09.145Z,1999.00
2024-03-25T01:41:09.177Z,1999.00
2024-03-25T01:42:09.205Z,1999.00
2024-03-25T01:43:09.220Z,1999.00
2024-03-25T01:44:09.264Z,1999.00
2024-03-25T01:45:09.279Z,1999.00
2024-03-25T01:46:09.284Z,1999.00
2024-03-25T01:47:09.336Z,1999.00
2024-03-25T01:48:09.349Z,1999.00
2024-03-25T01:49:09.380Z,1999.00
2024-03-25T01:50:09.401Z,1999.00
2024-03-25T01:51:09.429Z,1999.00
2024-03-25T01:52:09.442Z,1999.00
2024-03-25T01:53:09.519Z,1999.00
2024-03-25T01:54:09.524Z,1999.00
2024-03-25T01:55:09.530Z,1999.00
2024-03-25T01:56:09.555Z,1999.00
2024-03-25T01:57:09.585Z,1999.00
2024-03-25T01:58:09.629Z,1999.00
2024-03-25T01:59:09.658Z,1999.00
2024-03-25T02:00:09.695Z,1999.00
2024-03-25T02:01:09.700Z,1999.00
2024-03-25T02:02:09.725Z,1999.00
2024-03-25T02:03:09.756Z,1999.00
2024-03-25T02:04:09.784Z,1999.00
2024-03-25T02:05:09.800Z,1999.00
2024-03-25T02:06:09.832Z,1999.00
2024-03-25T02:07:09.872Z,1999.00
2024-03-25T02:08:09.888Z,1999.00
2024-03-25T02:09:09.922Z,1999.00
2024-03-25T02:10:09.936Z,1999.00
2024-03-25T02:11:09.990Z,1999.00
2024-03-25T02:12:10.029Z,1999.00
2024-03-25T02:13:10.025Z,1999.00
2024-03-25T02:14:10.083Z,1999.00
2024-03-25T02:15:10.110Z,1999.00
2024-03-25T02:16:10.106Z,1999.00
2024-03-25T02:17:10.141Z,1999.00
2024-03-25T02:18:10.164Z,1999.00
2024-03-25T02:19:10.193Z,1999.00
2024-03-25T02:20:10.222Z,1999.00
2024-03-25T02:21:10.235Z,1999.00
2024-03-25T02:22:10.264Z,1999.00
2024-03-25T02:23:10.250Z,1999.00
2024-03-25T02:24:10.246Z,1999.00
2024-03-25T02:25:10.237Z,1999.00
2024-03-25T02:26:10.228Z,1999.00
2024-03-25T02:27:10.212Z,1999.00
2024-03-25T02:28:10.206Z,1999.00
2024-03-25T02:29:10.183Z,1999.00
2024-03-25T02:30:10.160Z,1999.00
2024-03-25T02:31:10.148Z,1999.00
2024-03-25T02:32:10.140Z,1999.00
2024-03-25T02:33:10.133Z,1999.00
2024-03-25T02:34:10.126Z,1999.00
2024-03-25T02:35:10.117Z,1999.00
2024-03-25T02:36:10.106Z,1999.00
2024-03-25T02:37:10.095Z,1999.00
2024-03-25T02:38:10.084Z,1999.00
2024-03-25T02:39:10.094Z,1999.00
2024-03-25T02:40:10.078Z,1999.00
2024-03-25T02:41:10.063Z,1999.00
2024-03-25T02:42:10.042Z,1999.00
2024-03-25T02:43:10.049Z,1999.00
2024-03-25T02:44:10.025Z,1999.00
2024-03-25T02:45:10.039Z,1999.00
2024-03-25T02:46:10.056Z,1999.00
2024-03-25T02:47:10.054Z,1999.00
2024-03-25T02:48:10.039Z,1999.00
2024-03-25T02:49:10.035Z,1999.00
2024-03-25T02:50:10.020Z,1999.00
2024-03-25T02:51:10.005Z,1999.00
2024-03-25T02:52:09.983Z,1999.00
2024-03-25T02:53:09.963Z,1999.00
2024-03-25T02:54:09.962Z,1999.00
2024-03-25T02:55:09.952Z,1999.00
2024-03-25T02:56:09.924Z,1999.00
2024-03-25T02:57:09.931Z,1999.00
2024-03-25T02:58:09.901Z,1999.00
2024-03-25T02:59:09.891Z,1999.00
2024-03-25T03:00:09.872Z,1999.00
2024-03-25T03:01:09.858Z,1999.00
2024-03-25T03:02:09.854Z,1999.00
2024-03-25T03:03:09.836Z,1999.00
2024-03-25T03:04:09.833Z,1999.00
2024-03-25T03:05:09.829Z,1999.00
2024-03-25T03:06:09.801Z,1999.00
2024-03-25T03:07:09.795Z,1999.00
2024-03-25T03:08:09.775Z,1999.00
2024-03-25T03:09:09.776Z,1999.00
2024-03-25T03:10:09.790Z,1999.00
2024-03-25T03:11:09.846Z,1999.00
2024-03-25T03:12:09.848Z,1999.00
2024-03-25T03:13:09.888Z,1999.00
2024-03-25T03:14:09.908Z,1999.00
2024-03-25T03:15:09.881Z,1999.00
2024-03-25T03:16:09.867Z,1999.00
2024-03-25T03:17:09.846Z,1999.00
2024-03-25T03:18:09.831Z,1999.00
2024-03-25T03:19:09.824Z,1999.00
2024-03-25T03:20:09.807Z,1999.00
2024-03-25T03:21:09.797Z,1999.00
2024-03-25T03:22:09.808Z,1999.00
2024-03-25T03:23:09.780Z,1999.00
2024-03-25T03:24:09.797Z,1999.00
2024-03-25T03:25:09.775Z,1999.00
2024-03-25T03:26:09.748Z,1999.00
2024-03-25T03:27:09.758Z,1999.00
2024-03-25T03:28:09.741Z,1999.00
2024-03-25T03:29:09.706Z,1999.00
2024-03-25T03:30:09.697Z,1999.00
2024-03-25T03:31:09.692Z,1999.00
2024-03-25T03:32:09.673Z,1999.00
2024-03-25T03:33:09.676Z,1999.00
2024-03-25T03:34:09.671Z,1999.00
2024-03-25T03:35:09.653Z,1999.00
2024-03-25T03:36:09.631Z,1999.00
2024-03-25T03:37:09.627Z,1999.00
2024-03-25T03:38:09.605Z,1999.00
2024-03-25T03:39:09.611Z,1999.00
2024-03-25T03:40:09.585Z,1999.00
2024-03-25T03:41:09.583Z,1999.00
2024-03-25T03:42:09.575Z,1999.00
2024-03-25T03:43:09.580Z,1999.00
2024-03-25T03:44:09.583Z,1999.00
2024-03-25T03:45:09.555Z,1999.00
2024-03-25T03:46:09.557Z,1999.00
2024-03-25T03:47:09.539Z,1999.00
2024-03-25T03:48:09.542Z,1999.00
2024-03-25T03:49:09.530Z,1999.00
2024-03-25T03:50:09.534Z,1999.00
2024-03-25T03:51:09.513Z,1999.00
2024-03-25T03:52:09.518Z,1999.00
2024-03-25T03:53:09.527Z,1999.00
2024-03-25T03:54:09.498Z,1999.00
2024-03-25T03:55:09.487Z,1999.00
2024-03-25T03:56:09.586Z,1999.00
2024-03-25T03:57:09.484Z,1999.00
2024-03-25T03:58:09.482Z,1999.00
2024-03-25T03:59:09.478Z,1999.00
2024-03-25T04:00:09.470Z,1999.00
2024-03-25T04:01:09.457Z,1999.00
2024-03-25T04:02:09.477Z,1999.00
2024-03-25T04:03:09.452Z,1999.00
2024-03-25T04:04:09.460Z,1999.00
2024-03-25T04:05:09.440Z,1999.00
2024-03-25T04:06:09.435Z,1999.00
2024-03-25T04:07:09.433Z,1999.00
2024-03-25T04:08:09.453Z,1999.00
2024-03-25T04:09:09.460Z,1999.00
2024-03-25T04:10:09.432Z,1999.00
2024-03-25T04:11:09.439Z,1999.00
2024-03-25T04:12:09.421Z,1999.00
2024-03-25T04:13:09.417Z,1999.00
2024-03-25T04:14:09.422Z,1999.00
2024-03-25T04:15:09.417Z,1999.00
2024-03-25T04:16:09.407Z,1999.00
2024-03-25T04:17:09.415Z,1999.00
2024-03-25T04:18:09.402Z,1999.00
2024-03-25T04:19:09.424Z,1999.00
2024-03-25T04:20:09.418Z,1999.00
2024-03-25T04:21:09.406Z,1999.00
2024-03-25T04:22:09.392Z,1999.00
2024-03-25T04:23:09.391Z,1999.00
2024-03-25T04:24:09.388Z,1999.00
2024-03-25T04:25:09.390Z,1999.00
2024-03-25T04:26:09.364Z,1999.00
2024-03-25T04:27:09.355Z,1999.00
2024-03-25T04:28:09.364Z,1999.00
2024-03-25T04:29:09.398Z,1999.00
2024-03-25T04:30:09.344Z,1999.00
2024-03-25T04:31:09.340Z,1999.00
2024-03-25T04:32:09.337Z,1999.00
2024-03-25T04:33:09.345Z,1999.00
2024-03-25T04:34:09.345Z,1999.00
2024-03-25T04:35:09.338Z,1999.00
2024-03-25T04:36:09.338Z,1999.00
2024-03-25T04:37:09.343Z,1999.00
2024-03-25T04:38:16.645Z,600.00
2024-03-25T04:39:16.673Z,600.00
2024-03-25T04:40:16.678Z,600.00
2024-03-25T04:41:16.706Z,600.00
2024-03-25T04:42:16.719Z,600.00
2024-03-25T04:43:16.757Z,434.00
2024-03-25T04:44:16.857Z,400.00
2024-03-25T04:45:16.809Z,400.00
2024-03-25T04:46:16.854Z,400.00
2024-03-25T04:47:16.866Z,400.00
2024-03-25T04:48:16.873Z,400.00
2024-03-25T04:49:16.900Z,400.00
2024-03-25T04:50:16.926Z,400.00
2024-03-25T04:51:16.967Z,400.00
2024-03-25T04:52:16.967Z,400.00
2024-03-25T04:53:17.010Z,400.00
2024-03-25T04:54:17.019Z,400.00
2024-03-25T04:55:17.050Z,400.00
2024-03-25T04:56:17.079Z,400.00
2024-03-25T04:57:17.088Z,400.00
2024-03-25T04:58:17.111Z,400.00
2024-03-25T04:59:17.138Z,400.00
2024-03-25T05:00:17.163Z,400.00
2024-03-25T05:01:17.189Z,400.00
2024-03-25T05:02:17.229Z,400.00
2024-03-25T05:03:17.248Z,400.00
2024-03-25T05:04:17.264Z,400.00
2024-03-25T05:05:17.314Z,400.00
2024-03-25T05:06:17.314Z,400.00
2024-03-25T05:07:17.331Z,400.00
2024-03-25T05:08:17.367Z,400.00
2024-03-25T05:09:17.374Z,400.00
2024-03-25T05:10:17.398Z,400.00
2024-03-25T05:11:17.408Z,400.00
2024-03-25T05:12:17.437Z,400.00
2024-03-25T05:13:17.463Z,400.00
2024-03-25T05:14:17.486Z,400.00
2024-03-25T05:15:17.516Z,400.00
2024-03-25T05:16:17.569Z,400.00
2024-03-25T05:17:17.561Z,400.00
2024-03-25T05:18:17.591Z,400.00
2024-03-25T05:19:17.635Z,400.00
2024-03-25T05:20:17.651Z,400.00
2024-03-25T05:21:17.675Z,400.00
2024-03-25T05:22:17.706Z,400.00
2024-03-25T05:23:17.730Z,400.00
2024-03-25T05:24:17.780Z,400.00
2024-03-25T05:25:17.818Z,400.00
2024-03-25T05:26:17.836Z,400.00
2024-03-25T05:27:17.862Z,400.00
2024-03-25T05:28:17.889Z,400.00
2024-03-25T05:29:17.910Z,400.00
2024-03-25T05:30:17.948Z,401.00
2024-03-25T05:31:17.985Z,431.00
2024-03-25T05:32:18.001Z,430.00
2024-03-25T05:33:18.048Z,427.00
2024-03-25T05:34:18.052Z,418.00
2024-03-25T05:35:18.080Z,416.00
2024-03-25T05:36:18.109Z,419.00
2024-03-25T05:37:18.151Z,451.00
2024-03-25T05:38:18.161Z,485.00
2024-03-25T05:39:18.183Z,520.00
2024-03-25T05:40:18.207Z,553.00
2024-03-25T05:41:18.240Z,585.00
2024-03-25T05:42:18.266Z,584.00
2024-03-25T05:43:18.302Z,580.00
2024-03-25T05:44:18.346Z,579.00
2024-03-25T05:45:18.363Z,574.00
2024-03-25T05:46:18.388Z,574.00
2024-03-25T05:47:18.418Z,600.00
2024-03-25T05:48:18.456Z,604.00
2024-03-25T05:49:18.476Z,600.00
2024-03-25T05:50:18.492Z,600.00
2024-03-25T05:51:18.532Z,600.00
2024-03-25T05:52:18.539Z,600.00
2024-03-25T05:53:18.562Z,603.00
2024-03-25T05:54:18.610Z,600.00
2024-03-25T05:55:18.619Z,601.00
2024-03-25T05:56:18.632Z,600.00
2024-03-25T05:57:18.658Z,595.00
2024-03-25T05:58:18.701Z,592.00
2024-03-25T05:59:18.709Z,589.00
2024-03-25T06:00:18.740Z,580.00
2024-03-25T06:01:18.753Z,601.00
2024-03-25T06:02:18.778Z,599.00
2024-03-25T06:03:18.805Z,594.00
2024-03-25T06:04:18.834Z,591.00
2024-03-25T06:05:18.883Z,588.00
2024-03-25T06:06:18.874Z,582.00
2024-03-25T06:07:18.920Z,600.00
2024-03-25T06:08:18.911Z,601.00
2024-03-25T06:09:18.930Z,601.00
2024-03-25T06:10:18.969Z,601.00
2024-03-25T06:11:18.993Z,600.00
2024-03-25T06:12:19.009Z,600.00
2024-03-25T06:13:19.039Z,600.00
2024-03-25T06:14:19.067Z,601.00
2024-03-25T06:15:19.117Z,600.00
2024-03-25T06:16:19.174Z,600.00
2024-03-25T06:17:19.259Z,600.00
2024-03-25T06:18:19.339Z,600.00
2024-03-25T06:19:19.398Z,599.00
2024-03-25T06:20:19.567Z,597.00
2024-03-25T06:21:19.610Z,593.00
2024-03-25T06:22:19.604Z,594.00
2024-03-25T06:23:19.636Z,588.00
2024-03-25T06:24:19.692Z,596.00
2024-03-25T06:25:19.755Z,600.00
2024-03-25T06:26:19.798Z,600.00
2024-03-25T06:27:19.874Z,604.00
2024-03-25T06:28:19.939Z,602.00
2024-03-25T06:29:20.023Z,601.00
2024-03-25T06:30:20.081Z,600.00
2024-03-25T06:31:20.143Z,600.00
2024-03-25T06:32:20.212Z,604.00
2024-03-25T06:33:20.303Z,600.00
2024-03-25T06:34:20.364Z,601.00
2024-03-25T06:35:20.376Z,601.00
2024-03-25T06:36:20.394Z,602.00
2024-03-25T06:37:20.422Z,601.00
2024-03-25T06:38:20.446Z,600.00
2024-03-25T06:39:20.493Z,605.00
2024-03-25T06:40:20.503Z,602.00
2024-03-25T06:41:20.548Z,605.00
2024-03-25T06:42:20.563Z,602.00
2024-03-25T06:43:20.579Z,608.00
2024-03-25T06:44:20.616Z,610.00
2024-03-25T06:45:20.639Z,613.00
2024-03-25T06:46:20.689Z,613.00
2024-03-25T06:47:20.696Z,615.00
2024-03-25T06:48:20.718Z,619.00
2024-03-25T06:49:20.778Z,626.00
2024-03-25T06:50:20.834Z,623.00
2024-03-25T06:51:20.888Z,624.00
2024-03-25T06:52:20.998Z,622.00
2024-03-25T06:53:21.032Z,626.00
2024-03-25T06:54:21.113Z,630.00
2024-03-25T06:55:21.170Z,632.00
2024-03-25T06:56:21.243Z,636.00
2024-03-25T06:57:21.317Z,638.00
2024-03-25T06:58:21.390Z,640.00
2024-03-25T06:59:21.485Z,645.00
2024-03-25T07:00:21.558Z,650.00
2024-03-25T07:01:21.628Z,646.00
2024-03-25T07:02:21.727Z,655.00
2024-03-25T07:03:21.760Z,655.00
2024-03-25T07:04:21.854Z,657.00
2024-03-25T07:05:23.969Z,658.00
2024-03-25T07:06:21.876Z,659.00
2024-03-25T07:07:21.888Z,661.00
2024-03-25T07:08:21.930Z,667.00
2024-03-25T07:09:21.941Z,695.00
2024-03-25T07:10:21.954Z,696.00
2024-03-25T07:11:21.969Z,693.00
2024-03-25T07:12:21.993Z,697.00
2024-03-25T07:13:22.005Z,710.00
2024-03-25T07:14:22.032Z,706.00
2024-03-25T07:15:22.064Z,708.00
2024-03-25T07:16:22.071Z,704.00
2024-03-25T07:17:22.093Z,708.00
2024-03-25T07:18:22.100Z,712.00
2024-03-25T07:19:22.131Z,716.00
2024-03-25T07:20:22.158Z,708.00
2024-03-25T07:21:22.177Z,715.00
2024-03-25T07:22:22.194Z,724.00
2024-03-25T07:23:22.217Z,713.00
2024-03-25T07:24:22.229Z,714.00
2024-03-25T07:25:22.306Z,715.00
2024-03-25T07:26:22.292Z,710.00
2024-03-25T07:27:22.306Z,697.00
2024-03-25T07:28:22.321Z,693.00
2024-03-25T07:29:22.345Z,692.00
2024-03-25T07:30:22.365Z,673.00
2024-03-25T07:31:22.392Z,670.00
2024-03-25T07:32:22.422Z,664.00
2024-03-25T07:33:22.450Z,668.00
2024-03-25T07:34:22.468Z,660.00
2024-03-25T07:35:23.729Z,658.00
2024-03-25T07:36:22.534Z,653.00
2024-03-25T07:37:22.547Z,647.00
2024-03-25T07:38:24.206Z,650.00
2024-03-25T07:39:22.612Z,644.00
2024-03-25T07:40:22.628Z,641.00
2024-03-25T07:41:22.641Z,638.00
2024-03-25T07:42:22.663Z,630.00
2024-03-25T07:43:22.709Z,626.00
2024-03-25T07:44:22.761Z,619.00
2024-03-25T07:45:22.748Z,609.00
2024-03-25T07:46:24.826Z,600.00
2024-03-25T07:47:22.824Z,594.00
2024-03-25T07:48:22.819Z,584.00
2024-03-25T07:49:22.865Z,581.00
2024-03-25T07:50:22.891Z,572.00
2024-03-25T07:51:22.892Z,599.00
2024-03-25T07:52:22.916Z,600.00
2024-03-25T07:53:22.959Z,600.00
2024-03-25T07:54:22.991Z,600.00
2024-03-25T07:55:23.008Z,600.00
2024-03-25T07:56:23.026Z,601.00
2024-03-25T07:57:23.061Z,600.00
2024-03-25T07:58:23.108Z,600.00
2024-03-25T07:59:23.100Z,602.00
2024-03-25T08:00:23.112Z,600.00
2024-03-25T08:01:23.152Z,604.00
2024-03-25T08:02:23.171Z,598.00
2024-03-25T08:03:23.227Z,597.00
2024-03-25T08:04:23.238Z,592.00
2024-03-25T08:05:23.253Z,588.00
2024-03-25T08:06:23.271Z,588.00
2024-03-25T08:07:23.305Z,603.00
2024-03-25T08:08:23.372Z,602.00
2024-03-25T08:09:23.339Z,602.00
2024-03-25T08:10:23.359Z,600.00
2024-03-25T08:11:23.456Z,603.00
2024-03-25T08:12:23.404Z,601.00
2024-03-25T08:13:23.479Z,600.00
2024-03-25T08:14:23.479Z,604.00
2024-03-25T08:15:23.476Z,602.00
2024-03-25T08:16:23.511Z,604.00
2024-03-25T08:17:23.668Z,600.00
2024-03-25T08:18:23.658Z,600.00
2024-03-25T08:19:23.615Z,600.00
2024-03-25T08:20:23.598Z,602.00
2024-03-25T08:21:23.642Z,601.00
2024-03-25T08:22:23.661Z,605.00
2024-03-25T08:23:23.687Z,604.00
2024-03-25T08:24:23.721Z,600.00
2024-03-25T08:25:23.742Z,601.00
2024-03-25T08:26:23.823Z,600.00
2024-03-25T08:27:23.821Z,602.00
2024-03-25T08:28:23.810Z,600.00
2024-03-25T08:29:23.846Z,601.00
2024-03-25T08:30:23.886Z,600.00
2024-03-25T08:31:23.999Z,600.00
2024-03-25T08:32:23.963Z,604.00
2024-03-25T08:33:24.001Z,600.00
2024-03-25T08:34:24.042Z,601.00
2024-03-25T08:35:24.075Z,604.00
2024-03-25T08:36:24.169Z,608.00
2024-03-25T08:38:30.829Z,600.00
2024-03-25T08:39:30.884Z,600.00
2024-03-25T08:40:30.829Z,600.00
2024-03-25T08:41:30.819Z,600.00
2024-03-25T08:42:30.807Z,600.00
2024-03-25T08:43:30.790Z,602.00
2024-03-25T08:44:30.793Z,600.00
2024-03-25T08:45:30.848Z,602.00
2024-03-25T08:46:30.772Z,600.00
2024-03-25T08:47:30.767Z,602.00
2024-03-25T08:48:30.760Z,601.00
2024-03-25T08:49:30.849Z,600.00
2024-03-25T08:50:30.739Z,601.00
2024-03-25T08:51:30.739Z,600.00
2024-03-25T08:52:30.715Z,605.00
2024-03-25T08:53:30.716Z,602.00
2024-03-25T08:54:30.707Z,600.00
2024-03-25T08:55:30.688Z,604.00
2024-03-25T08:56:30.693Z,604.00
2024-03-25T08:57:30.778Z,603.00
2024-03-25T08:58:30.653Z,600.00
2024-03-25T08:59:30.652Z,596.00
2024-03-25T09:00:30.679Z,595.00
2024-03-25T09:01:30.627Z,600.00
2024-03-25T09:02:30.622Z,605.00
2024-03-25T09:03:30.618Z,605.00
2024-03-25T09:04:30.640Z,603.00
2024-03-25T09:05:30.599Z,603.00
2024-03-25T09:06:30.579Z,607.00
2024-03-25T09:07:30.636Z,604.00
2024-03-25T09:08:30.549Z,601.00
2024-03-25T09:09:30.553Z,602.00
2024-03-25T09:10:30.526Z,604.00
2024-03-25T09:11:30.501Z,604.00
2024-03-25T09:12:30.499Z,597.00
2024-03-25T09:13:30.496Z,596.00
2024-03-25T09:14:30.547Z,610.00
2024-03-25T09:15:30.441Z,609.00
2024-03-25T09:16:30.458Z,609.00
2024-03-25T09:17:30.412Z,605.00
2024-03-25T09:18:30.380Z,603.00
2024-03-25T09:19:30.421Z,606.00
2024-03-25T09:20:30.352Z,603.00
2024-03-25T09:21:30.334Z,603.00
2024-03-25T09:22:30.307Z,604.00
2024-03-25T09:23:30.275Z,612.00
2024-03-25T09:24:30.276Z,606.00
2024-03-25T09:25:30.243Z,603.00
2024-03-25T09:26:30.259Z,609.00
2024-03-25T09:27:30.268Z,606.00
2024-03-25T09:28:30.238Z,622.00
2024-03-25T09:29:30.206Z,623.00
2024-03-25T09:30:30.156Z,622.00
2024-03-25T09:31:30.164Z,640.00
2024-03-25T09:32:30.161Z,648.00
2024-03-25T09:33:30.106Z,653.00
2024-03-25T09:34:30.178Z,654.00
2024-03-25T09:35:30.279Z,682.00
2024-03-25T09:36:30.170Z,700.00
2024-03-25T09:37:30.181Z,694.00
2024-03-25T09:38:30.176Z,703.00
2024-03-25T09:39:30.176Z,731.00
2024-03-25T09:40:30.178Z,757.00
2024-03-25T09:41:30.160Z,775.00
2024-03-25T09:42:30.323Z,812.00
2024-03-25T09:43:30.126Z,812.00
2024-03-25T09:44:30.118Z,816.00
2024-03-25T09:45:30.045Z,833.00
2024-03-25T09:46:30.014Z,864.00
2024-03-25T09:47:29.985Z,906.00
2024-03-25T09:48:29.976Z,929.00
2024-03-25T09:49:29.945Z,948.00
2024-03-25T09:50:29.889Z,968.00
2024-03-25T09:51:29.907Z,984.00
2024-03-25T09:52:29.932Z,1005.00
2024-03-25T09:53:29.828Z,1022.00
2024-03-25T09:54:29.836Z,1033.00
2024-03-25T09:55:29.764Z,1050.00
2024-03-25T09:56:29.721Z,1073.00
2024-03-25T09:57:29.724Z,1073.00
2024-03-25T09:58:29.685Z,1077.00
2024-03-25T09:59:29.639Z,1085.00
2024-03-25T10:00:29.615Z,1111.00
2024-03-25T10:01:29.589Z,1145.00
2024-03-25T10:02:29.647Z,1169.00
2024-03-25T10:03:29.526Z,1185.00
2024-03-25T10:04:29.512Z,1187.00
2024-03-25T10:05:29.552Z,1209.00
2024-03-25T10:06:29.560Z,1221.00
2024-03-25T10:07:29.614Z,1235.00
2024-03-25T10:08:29.654Z,1243.00
2024-03-25T10:09:29.656Z,1256.00
2024-03-25T10:10:29.650Z,1257.00
2024-03-25T10:11:29.669Z,1261.00
2024-03-25T10:12:29.558Z,1271.00
2024-03-25T10:13:29.508Z,1289.00
2024-03-25T10:14:29.476Z,1311.00
2024-03-25T10:15:29.427Z,1330.00
2024-03-25T10:16:29.411Z,1340.00
2024-03-25T10:17:29.436Z,1352.00
2024-03-25T10:18:29.327Z,1360.00
2024-03-25T10:19:29.293Z,1369.00
2024-03-25T10:20:29.298Z,1378.00
2024-03-25T10:21:29.303Z,1385.00
2024-03-25T10:22:29.382Z,1399.00
2024-03-25T10:23:29.324Z,1403.00
2024-03-25T10:24:29.334Z,1407.00
2024-03-25T10:25:29.336Z,1411.00
2024-03-25T10:26:29.397Z,1414.00
2024-03-25T10:27:29.301Z,1415.00
2024-03-25T10:28:29.318Z,1417.00
2024-03-25T10:29:29.234Z,1425.00
2024-03-25T10:30:29.221Z,1440.00
2024-03-25T10:31:29.177Z,1455.00
2024-03-25T10:32:29.180Z,1463.00
2024-03-25T10:33:29.196Z,1466.00
2024-03-25T10:34:29.337Z,1464.00
2024-03-25T10:35:28.998Z,1472.00
2024-03-25T10:36:28.951Z,1467.00
2024-03-25T10:37:28.983Z,1471.00
2024-03-25T10:38:28.879Z,1471.00
2024-03-25T10:39:28.852Z,1472.00
2024-03-25T10:40:28.844Z,1474.00
2024-03-25T10:41:28.766Z,1480.00
2024-03-25T10:42:28.728Z,1487.00
2024-03-25T10:43:28.720Z,1488.00
2024-03-25T10:44:28.650Z,1480.00
2024-03-25T10:45:28.658Z,1483.00
2024-03-25T10:46:28.622Z,1486.00
2024-03-25T10:47:28.549Z,1474.00
2024-03-25T10:48:28.513Z,1479.00
2024-03-25T10:49:28.527Z,1472.00
2024-03-25T10:50:28.450Z,1477.00
2024-03-25T10:51:28.431Z,1471.00
2024-03-25T10:52:28.366Z,1470.00
2024-03-25T10:53:28.353Z,1457.00
2024-03-25T10:54:28.323Z,1454.00
2024-03-25T10:55:28.243Z,1449.00
2024-03-25T10:56:28.215Z,1449.00
2024-03-25T10:57:28.162Z,1446.00
2024-03-25T10:58:28.122Z,1439.00
2024-03-25T10:59:28.093Z,1444.00
2024-03-25T11:00:28.036Z,1453.00
2024-03-25T11:01:27.965Z,1440.00
2024-03-25T11:02:27.935Z,1448.00
2024-03-25T11:03:27.998Z,1451.00
2024-03-25T11:04:27.994Z,1447.00
2024-03-25T11:05:28.012Z,1447.00
2024-03-25T11:06:27.833Z,1461.00
2024-03-25T11:07:27.737Z,1456.00
2024-03-25T11:08:27.694Z,1460.00
2024-03-25T11:09:27.647Z,1461.00
2024-03-25T11:10:27.610Z,1456.00
2024-03-25T11:11:27.563Z,1444.00
2024-03-25T11:12:27.524Z,1446.00
2024-03-25T11:13:27.476Z,1446.00
2024-03-25T11:14:27.520Z,1450.00
2024-03-25T11:15:27.412Z,1453.00
2024-03-25T11:16:27.385Z,1455.00
2024-03-25T11:17:27.318Z,1462.00
2024-03-25T11:18:27.262Z,1473.00
2024-03-25T11:19:27.222Z,1449.00
2024-03-25T11:20:27.243Z,1457.00
2024-03-25T11:21:27.147Z,1446.00
2024-03-25T11:22:27.093Z,1439.00
2024-03-25T11:23:27.057Z,1437.00
2024-03-25T11:24:27.002Z,1436.00
2024-03-25T11:25:26.978Z,1433.00
2024-03-25T11:26:26.918Z,1428.00
2024-03-25T11:27:26.891Z,1418.00
2024-03-25T11:28:26.831Z,1417.00
2024-03-25T11:29:26.808Z,1404.00
2024-03-25T11:30:26.746Z,1407.00
2024-03-25T11:31:26.715Z,1410.00
2024-03-25T11:32:26.682Z,1403.00
2024-03-25T11:33:26.621Z,1391.00
2024-03-25T11:34:26.574Z,1388.00
2024-03-25T11:35:26.538Z,1374.00
2024-03-25T11:36:26.521Z,1381.00
2024-03-25T11:37:26.440Z,1366.00
2024-03-25T11:38:26.406Z,1369.00
2024-03-25T11:39:26.371Z,1372.00
2024-03-25T11:40:26.424Z,1370.00
2024-03-25T11:41:26.450Z,1357.00
2024-03-25T11:42:26.475Z,1362.00
2024-03-25T11:43:26.478Z,1360.00
2024-03-25T11:44:26.494Z,1355.00
2024-03-25T11:45:26.486Z,1358.00
2024-03-25T11:46:26.461Z,1353.00
2024-03-25T11:47:26.433Z,1344.00
2024-03-25T11:48:26.392Z,1351.00
2024-03-25T11:49:26.366Z,1339.00
2024-03-25T11:50:26.363Z,1328.00
2024-03-25T11:51:26.327Z,1332.00
2024-03-25T11:52:26.291Z,1324.00
2024-03-25T11:53:26.234Z,1312.00
2024-03-25T11:54:26.196Z,1304.00
2024-03-25T11:55:26.186Z,1299.00
2024-03-25T11:56:26.113Z,1287.00
2024-03-25T11:57:26.975Z,1279.00
2024-03-25T11:58:26.044Z,1275.00
2024-03-25T11:59:25.984Z,1277.00
2024-03-25T12:00:25.932Z,1271.00
2024-03-25T12:01:25.894Z,1263.00
2024-03-25T12:02:25.845Z,1259.00
2024-03-25T12:03:36.159Z,1262.00
2024-03-25T12:04:26.773Z,1262.00
2024-03-25T12:05:25.768Z,1262.00
2024-03-25T12:06:25.688Z,1263.00
2024-03-25T12:07:25.642Z,1262.00
2024-03-25T12:08:25.613Z,1261.00
2024-03-25T12:09:25.590Z,1247.00
2024-03-25T12:10:25.542Z,1233.00
2024-03-25T12:11:25.524Z,1232.00
2024-03-25T12:12:25.471Z,1234.00
2024-03-25T12:13:25.426Z,1225.00
2024-03-25T12:14:25.384Z,1214.00
2024-03-25T12:15:25.339Z,1201.00
2024-03-25T12:16:25.305Z,1195.00